createdAt,value
2023-03-12T00:00:04.544Z,2.00
2023-03-12T00:02:35.889Z,2.23
2023-03-12T00:05:02.931Z,1.87
2023-03-12T00:07:29.603Z,2.13
2023-03-12T00:09:56.561Z,2.30
2023-03-12T00:12:23.259Z,2.50
2023-03-12T00:14:50.357Z,2.53
2023-03-12T00:17:17.087Z,2.20
2023-03-12T00:19:45.305Z,2.10
2023-03-12T00:22:12.069Z,2.50
2023-03-12T00:24:39.301Z,2.20
2023-03-12T00:27:07.245Z,2.00
2023-03-12T00:29:34.066Z,2.57
2023-03-12T00:32:00.932Z,2.63
2023-03-12T00:34:27.718Z,2.20
2023-03-12T00:36:54.871Z,2.23
2023-03-12T00:39:22.118Z,2.50
2023-03-12T00:41:48.812Z,2.50
2023-03-12T00:44:15.649Z,2.50
2023-03-12T00:46:42.391Z,2.20
2023-03-12T00:49:09.487Z,3.33
2023-03-12T00:51:36.290Z,3.03
2023-03-12T00:54:03.032Z,2.90
2023-03-12T00:56:30.024Z,2.60
2023-03-12T00:58:56.861Z,2.90
2023-03-12T01:01:23.656Z,2.50
2023-03-12T01:03:54.539Z,2.00
2023-03-12T01:06:21.570Z,2.30
2023-03-12T01:08:48.470Z,4.33
2023-03-12T01:11:20.986Z,2.63
2023-03-12T01:13:48.330Z,2.97
2023-03-12T01:16:15.556Z,7.03
2023-03-12T01:18:42.267Z,5.87
2023-03-12T01:21:09.439Z,3.40
2023-03-12T01:23:37.637Z,2.83
2023-03-12T01:26:04.505Z,3.67
2023-03-12T01:28:31.826Z,3.17
2023-03-12T01:30:58.593Z,2.90
2023-03-12T01:33:25.853Z,2.57
2023-03-12T01:35:52.804Z,2.57
2023-03-12T01:38:21.006Z,2.63
2023-03-12T01:40:48.046Z,2.17
2023-03-12T01:43:28.611Z,2.97
2023-03-12T01:46:06.182Z,2.70
2023-03-12T01:48:42.017Z,2.90
2023-03-12T01:51:12.606Z,2.70
2023-03-12T01:53:43.035Z,3.60
2023-03-12T01:56:11.247Z,3.20
2023-03-12T01:58:42.507Z,3.00
2023-03-12T02:01:09.349Z,2.80
2023-03-12T02:03:37.227Z,2.77
2023-03-12T02:06:11.879Z,2.80
2023-03-12T02:08:44.062Z,2.70
2023-03-12T02:11:12.129Z,2.87
2023-03-12T02:13:40.472Z,2.60
2023-03-12T02:16:09.849Z,3.00
2023-03-12T02:18:36.877Z,2.47
2023-03-12T02:21:34.143Z,3.30
2023-03-12T02:24:09.413Z,3.20
2023-03-12T02:26:38.694Z,3.20
2023-03-12T02:29:09.010Z,3.23
2023-03-12T02:31:43.739Z,3.27
2023-03-12T02:34:11.413Z,3.23
2023-03-12T02:36:38.197Z,3.10
2023-03-12T02:39:05.931Z,3.00
2023-03-12T02:41:44.402Z,3.07
2023-03-12T02:44:25.655Z,2.97
2023-03-12T02:46:55.619Z,2.93
2023-03-12T02:49:25.696Z,3.10
2023-03-12T02:51:53.079Z,3.60
2023-03-12T02:54:21.839Z,3.00
2023-03-12T02:56:49.592Z,2.83
2023-03-12T02:59:17.919Z,2.80
2023-03-12T03:01:45.511Z,3.23
2023-03-12T03:04:13.576Z,3.47
2023-03-12T03:06:43.113Z,3.13
2023-03-12T03:09:10.848Z,3.63
2023-03-12T03:11:37.566Z,4.17
2023-03-12T03:14:07.034Z,3.23
2023-03-12T03:16:34.899Z,2.90
2023-03-12T03:19:01.883Z,3.10
2023-03-12T03:21:29.799Z,3.33
2023-03-12T03:23:57.183Z,3.10
2023-03-12T03:26:25.110Z,3.20
2023-03-12T03:28:53.471Z,3.13
2023-03-12T03:31:20.577Z,3.40
2023-03-12T03:33:48.223Z,3.07
2023-03-12T03:36:16.164Z,4.77
2023-03-12T03:38:59.444Z,3.07
2023-03-12T03:41:27.170Z,3.50
2023-03-12T03:43:58.948Z,3.23
2023-03-12T03:46:27.444Z,3.27
2023-03-12T03:48:59.990Z,3.77
2023-03-12T03:51:28.199Z,3.03
2023-03-12T03:54:00.558Z,3.67
2023-03-12T03:56:29.001Z,3.63
2023-03-12T03:58:58.550Z,3.87
2023-03-12T04:01:26.632Z,4.17
2023-03-12T04:03:55.147Z,4.20
2023-03-12T04:06:21.966Z,3.60
2023-03-12T04:08:48.788Z,3.90
2023-03-12T04:11:19.967Z,3.40
2023-03-12T04:13:47.149Z,3.70
2023-03-12T04:16:16.853Z,3.50
2023-03-12T04:18:44.310Z,3.30
2023-03-12T04:21:13.630Z,3.50
2023-03-12T04:23:41.653Z,3.67
2023-03-12T04:26:09.942Z,3.43
2023-03-12T04:28:38.208Z,3.37
2023-03-12T04:31:08.334Z,3.33
2023-03-12T04:33:40.920Z,3.17
2023-03-12T04:36:11.676Z,3.30
2023-03-12T04:38:40.545Z,3.57
2023-03-12T04:41:15.663Z,3.07
2023-03-12T04:44:10.894Z,2.90
2023-03-12T04:46:40.083Z,3.63
2023-03-12T04:49:07.524Z,3.50
2023-03-12T04:51:36.437Z,3.13
2023-03-12T04:54:04.627Z,4.07
2023-03-12T04:56:32.120Z,2.80
2023-03-12T04:58:59.411Z,3.23
2023-03-12T05:01:33.611Z,3.17
2023-03-12T05:04:04.195Z,3.40
2023-03-12T05:06:31.271Z,3.53
2023-03-12T05:08:58.332Z,3.60
2023-03-12T05:11:25.408Z,3.40
2023-03-12T05:13:52.209Z,3.50
2023-03-12T05:16:19.572Z,3.17
2023-03-12T05:18:47.382Z,3.30
2023-03-12T05:21:18.568Z,3.73
2023-03-12T05:23:46.531Z,3.60
2023-03-12T05:26:20.236Z,3.97
2023-03-12T05:28:47.469Z,3.97
2023-03-12T05:31:15.983Z,3.57
2023-03-12T05:33:44.292Z,4.40
2023-03-12T05:36:12.428Z,3.90
2023-03-12T05:38:39.806Z,3.73
2023-03-12T05:41:07.396Z,3.97
2023-03-12T05:43:36.617Z,3.47
2023-03-12T05:46:05.014Z,3.93
2023-03-12T05:48:36.636Z,4.07
2023-03-12T05:51:04.105Z,3.97
2023-03-12T05:53:33.100Z,4.20
2023-03-12T05:56:06.021Z,4.30
2023-03-12T05:58:34.536Z,4.00
2023-03-12T06:01:02.343Z,4.00
2023-03-12T06:03:29.534Z,4.00
2023-03-12T06:05:57.521Z,3.50
2023-03-12T06:08:24.725Z,4.93
2023-03-12T06:10:53.416Z,4.10
2023-03-12T06:13:21.032Z,3.83
2023-03-12T06:15:48.212Z,3.30
2023-03-12T06:18:15.831Z,3.93
2023-03-12T06:20:43.698Z,3.83
2023-03-12T06:23:10.914Z,3.63
2023-03-12T06:25:37.786Z,3.40
2023-03-12T06:28:04.807Z,3.73
2023-03-12T06:30:32.082Z,3.40
2023-03-12T06:32:59.786Z,3.33
2023-03-12T06:35:27.875Z,3.20
2023-03-12T06:37:55.052Z,2.80
2023-03-12T06:40:21.953Z,2.80
2023-03-12T06:42:48.830Z,2.90
2023-03-12T06:45:15.614Z,3.17
2023-03-12T06:47:42.945Z,3.27
2023-03-12T06:50:10.417Z,3.00
2023-03-12T06:52:37.104Z,3.20
2023-03-12T06:55:04.195Z,3.10
2023-03-12T06:57:30.896Z,3.50
2023-03-12T06:59:58.082Z,3.60
2023-03-12T07:02:25.694Z,3.17
2023-03-12T07:04:52.503Z,3.17
2023-03-12T07:07:20.137Z,3.30
2023-03-12T07:09:46.937Z,3.53
2023-03-12T07:12:14.303Z,4.00
2023-03-12T07:14:41.041Z,4.13
2023-03-12T07:17:07.685Z,4.00
2023-03-12T07:19:34.440Z,3.87
2023-03-12T07:22:01.340Z,4.53
2023-03-12T07:24:28.392Z,4.10
2023-03-12T07:26:55.628Z,4.17
2023-03-12T07:29:22.331Z,3.80
2023-03-12T07:31:49.012Z,4.10
2023-03-12T07:34:16.008Z,4.40
2023-03-12T07:36:43.307Z,3.90
2023-03-12T07:39:10.138Z,3.93
2023-03-12T07:41:39.066Z,4.50
2023-03-12T07:44:06.477Z,4.63
2023-03-12T07:46:33.279Z,4.43
2023-03-12T07:49:01.020Z,3.67
2023-03-12T07:51:27.998Z,4.70
2023-03-12T07:53:55.347Z,4.40
2023-03-12T07:56:22.471Z,4.50
2023-03-12T07:58:49.340Z,5.13
2023-03-12T08:01:16.191Z,4.90
2023-03-12T08:03:43.575Z,4.53
2023-03-12T08:06:10.450Z,4.20
2023-03-12T08:08:41.667Z,4.40
2023-03-12T08:11:09.393Z,4.47
2023-03-12T08:13:36.261Z,4.20
2023-03-12T08:16:03.633Z,4.80
2023-03-12T08:18:31.179Z,4.47
2023-03-12T08:20:57.912Z,3.77
2023-03-12T08:23:25.016Z,3.50
2023-03-12T08:25:52.187Z,3.70
2023-03-12T08:28:19.845Z,3.73
2023-03-12T08:30:48.492Z,4.30
2023-03-12T08:33:16.991Z,3.93
2023-03-12T08:35:45.342Z,3.80
2023-03-12T08:38:12.492Z,4.03
2023-03-12T08:40:39.431Z,4.00
2023-03-12T08:43:07.658Z,3.40
2023-03-12T08:45:36.453Z,3.63
2023-03-12T08:48:04.683Z,3.63
2023-03-12T08:50:32.266Z,3.33
2023-03-12T08:53:00.574Z,3.10
2023-03-12T08:55:30.589Z,2.90
2023-03-12T08:57:57.650Z,2.80
2023-03-12T09:00:25.266Z,2.63
2023-03-12T09:02:53.677Z,3.13
2023-03-12T09:05:20.892Z,3.17
2023-03-12T09:07:47.887Z,3.20
2023-03-12T09:10:15.602Z,3.10
2023-03-12T09:12:42.323Z,2.50
2023-03-12T09:15:09.892Z,2.90
2023-03-12T09:17:37.573Z,2.83
2023-03-12T09:20:09.695Z,2.50
2023-03-12T09:22:37.468Z,2.70
2023-03-12T09:25:05.522Z,2.50
2023-03-12T09:27:39.889Z,2.40
2023-03-12T09:30:09.156Z,2.10
2023-03-12T09:32:36.324Z,2.53
2023-03-12T09:35:03.186Z,2.23
2023-03-12T09:37:32.292Z,2.23
2023-03-12T09:39:59.594Z,2.37
2023-03-12T09:42:49.859Z,2.47
2023-03-12T09:45:22.948Z,2.33
2023-03-12T09:47:54.012Z,2.00
2023-03-12T09:50:23.763Z,2.37
2023-03-12T09:53:04.772Z,2.20
2023-03-12T09:55:46.237Z,2.03
2023-03-12T09:58:26.049Z,2.07
2023-03-12T10:01:24.096Z,2.00
2023-03-12T10:04:06.061Z,1.87
2023-03-12T10:06:42.885Z,2.10
2023-03-12T10:09:31.303Z,1.80
2023-03-12T10:12:01.272Z,2.20
2023-03-12T10:14:34.358Z,1.57
2023-03-12T10:17:26.929Z,1.57
2023-03-12T10:20:31.363Z,1.30
2023-03-12T10:23:07.769Z,1.30
2023-03-12T10:25:56.610Z,2.03
2023-03-12T10:28:36.242Z,1.60
2023-03-12T10:31:07.202Z,1.57
2023-03-12T10:33:43.025Z,1.40
2023-03-12T10:36:17.185Z,2.00
2023-03-12T10:38:43.945Z,1.20
2023-03-12T10:41:21.926Z,1.90
2023-03-12T10:43:48.781Z,1.10
2023-03-12T10:46:15.569Z,1.40
2023-03-12T10:48:43.940Z,1.37
2023-03-12T10:51:13.060Z,1.33
2023-03-12T10:53:45.332Z,1.37
2023-03-12T10:56:15.452Z,1.40
2023-03-12T10:58:51.022Z,1.70
2023-03-12T11:01:28.574Z,1.53
2023-03-12T11:04:19.145Z,1.33
2023-03-12T11:07:16.839Z,1.67
2023-03-12T11:09:43.808Z,1.70
2023-03-12T11:12:24.422Z,1.80
2023-03-12T11:14:51.179Z,1.80
2023-03-12T11:17:29.106Z,2.07
2023-03-12T11:19:55.917Z,2.00
2023-03-12T11:22:33.137Z,1.93
2023-03-12T11:25:06.108Z,2.00
2023-03-12T11:27:55.387Z,2.10
2023-03-12T11:30:29.629Z,2.30
2023-03-12T11:32:58.154Z,2.23
2023-03-12T11:35:52.963Z,2.50
2023-03-12T11:38:25.950Z,2.07
2023-03-12T11:41:26.288Z,2.00
2023-03-12T11:44:37.892Z,2.00
2023-03-12T11:47:28.630Z,2.33
2023-03-12T11:50:04.343Z,2.20
2023-03-12T11:53:04.324Z,1.63
2023-03-12T11:55:46.318Z,2.03
2023-03-12T11:58:25.675Z,1.90
2023-03-12T12:01:08.541Z,2.37
2023-03-12T12:04:10.058Z,2.40
2023-03-12T12:06:52.795Z,2.40
2023-03-12T12:09:37.479Z,2.20
2023-03-12T12:12:27.586Z,1.80
2023-03-12T12:15:06.262Z,2.40
2023-03-12T12:18:04.819Z,2.00
2023-03-12T12:20:43.481Z,1.93
2023-03-12T12:23:25.493Z,6.17
2023-03-12T12:25:55.034Z,3.07
2023-03-12T12:28:48.589Z,2.30
2023-03-12T12:31:44.920Z,2.67
2023-03-12T12:34:20.925Z,2.37
2023-03-12T12:37:15.734Z,2.60
2023-03-12T12:39:48.586Z,2.63
2023-03-12T12:42:24.731Z,2.80
2023-03-12T12:44:53.929Z,2.80
2023-03-12T12:50:13.230Z,2.37
2023-03-12T12:52:40.767Z,2.50
2023-03-12T12:55:31.578Z,2.13
2023-03-12T12:58:12.285Z,2.00
2023-03-12T13:00:41.929Z,1.70
2023-03-12T13:03:15.480Z,1.73
2023-03-12T13:05:47.752Z,1.97
2023-03-12T13:08:55.421Z,1.87
2023-03-12T13:11:43.081Z,1.80
2023-03-12T13:14:09.753Z,2.33
2023-03-12T13:16:42.989Z,2.43
2023-03-12T13:19:16.003Z,4.20
2023-03-12T13:21:54.136Z,2.53
2023-03-12T13:24:29.179Z,2.87
2023-03-12T13:27:23.553Z,1.97
2023-03-12T13:29:57.389Z,2.13
2023-03-12T13:32:50.289Z,1.80
2023-03-12T13:35:17.046Z,2.20
2023-03-12T13:37:47.055Z,1.83
2023-03-12T13:40:38.687Z,1.57
2023-03-12T13:43:08.388Z,1.50
2023-03-12T13:45:55.734Z,1.70
2023-03-12T13:48:24.371Z,1.47
2023-03-12T13:50:57.634Z,1.90
2023-03-12T13:53:34.878Z,1.50
2023-03-12T13:56:05.651Z,1.33
2023-03-12T13:58:50.347Z,1.27
2023-03-12T14:01:20.705Z,1.50
2023-03-12T14:03:58.825Z,1.27
2023-03-12T14:06:30.329Z,1.20
2023-03-12T14:09:03.598Z,1.30
2023-03-12T14:11:55.345Z,1.40
2023-03-12T14:14:41.350Z,1.50
2023-03-12T14:17:36.492Z,2.23
2023-03-12T14:20:14.365Z,1.23
2023-03-12T14:22:44.939Z,1.10
2023-03-12T14:25:22.526Z,1.00
2023-03-12T14:27:50.000Z,1.00
2023-03-12T14:30:23.594Z,1.43
2023-03-12T14:32:55.607Z,2.20
2023-03-12T14:35:37.411Z,1.13
2023-03-12T14:38:41.392Z,1.60
2023-03-12T14:41:19.978Z,1.10
2023-03-12T14:43:52.279Z,2.40
2023-03-12T14:46:24.496Z,1.27
2023-03-12T14:48:55.000Z,1.20
2023-03-12T14:51:25.358Z,4.17
2023-03-12T14:53:53.198Z,1.90
2023-03-12T14:56:33.857Z,1.10
2023-03-12T14:59:20.064Z,2.20
2023-03-12T15:01:47.959Z,3.87
2023-03-12T15:04:20.166Z,3.07
2023-03-12T15:06:54.306Z,2.93
2023-03-12T15:09:28.343Z,1.27
2023-03-12T15:12:01.311Z,2.50
2023-03-12T15:14:34.178Z,1.50
2023-03-12T15:17:03.034Z,1.50
2023-03-12T15:19:35.301Z,0.50
2023-03-12T15:22:04.060Z,1.40
2023-03-12T15:24:37.982Z,0.43
2023-03-12T15:27:28.689Z,0.40
2023-03-12T15:29:57.710Z,0.40
2023-03-12T15:32:26.122Z,0.60
2023-03-12T15:34:54.635Z,0.70
2023-03-12T15:37:41.144Z,0.20
2023-03-12T15:40:24.098Z,0.20
2023-03-12T15:42:51.348Z,0.40
2023-03-12T15:45:21.729Z,0.30
2023-03-12T15:47:51.341Z,0.37
2023-03-12T15:50:32.080Z,0.10
2023-03-12T15:53:25.578Z,0.33
2023-03-12T15:56:19.432Z,0.30
2023-03-12T15:58:46.735Z,0.33
2023-03-12T16:01:18.726Z,0.30
2023-03-12T16:03:46.599Z,0.30
2023-03-12T16:06:16.358Z,0.20
2023-03-12T16:08:53.091Z,0.20
2023-03-12T16:11:23.593Z,0.37
2023-03-12T16:13:54.813Z,0.40
2023-03-12T16:16:21.671Z,0.23
2023-03-12T16:18:48.665Z,0.30
2023-03-12T16:21:15.400Z,0.30
2023-03-12T16:23:42.102Z,0.20
2023-03-12T16:26:08.904Z,0.50
2023-03-12T16:28:36.287Z,0.30
2023-03-12T16:31:03.751Z,0.40
2023-03-12T16:33:30.565Z,0.40
2023-03-12T16:35:57.887Z,0.60
2023-03-12T16:38:24.754Z,0.37
2023-03-12T16:40:52.827Z,0.30
2023-03-12T16:43:23.394Z,0.40
2023-03-12T16:45:52.479Z,0.40
2023-03-12T16:48:23.129Z,0.50
2023-03-12T16:50:59.909Z,0.67
2023-03-12T16:53:27.081Z,0.47
2023-03-12T16:55:56.915Z,0.50
2023-03-12T16:58:25.904Z,0.63
2023-03-12T17:00:54.471Z,0.80
2023-03-12T17:03:37.365Z,0.50
2023-03-12T17:06:07.061Z,0.70
2023-03-12T17:08:36.353Z,0.57
2023-03-12T17:11:12.352Z,0.77
2023-03-12T17:13:39.183Z,0.60
2023-03-12T17:16:07.337Z,0.60
2023-03-12T17:18:34.298Z,1.90
2023-03-12T17:21:01.617Z,1.07
2023-03-12T17:23:28.645Z,0.70
2023-03-12T17:25:55.653Z,0.80
2023-03-12T17:28:22.446Z,1.10
2023-03-12T17:30:49.423Z,1.50
2023-03-12T17:33:18.246Z,1.53
2023-03-12T17:35:45.886Z,1.70
2023-03-12T17:38:13.176Z,1.27
2023-03-12T17:40:44.645Z,4.27
2023-03-12T17:43:11.921Z,1.20
2023-03-12T17:45:38.810Z,1.07
2023-03-12T17:48:07.006Z,8.67
2023-03-12T17:50:34.161Z,1.70
2023-03-12T17:53:01.349Z,1.33
2023-03-12T17:55:28.152Z,1.00
2023-03-12T17:57:54.915Z,0.90
2023-03-12T18:00:23.134Z,1.70
2023-03-12T18:02:50.947Z,1.10
2023-03-12T18:05:17.968Z,1.13
2023-03-12T18:07:47.397Z,1.87
2023-03-12T18:10:14.810Z,0.80
2023-03-12T18:12:41.624Z,0.90
2023-03-12T18:15:11.174Z,0.90
2023-03-12T18:17:38.194Z,0.70
2023-03-12T18:20:09.715Z,0.80
2023-03-12T18:22:38.450Z,1.40
2023-03-12T18:25:07.393Z,0.60
2023-03-12T18:27:34.676Z,0.50
2023-03-12T18:30:02.682Z,0.83
2023-03-12T18:32:29.568Z,0.40
2023-03-12T18:34:56.874Z,0.60
2023-03-12T18:37:23.631Z,0.80
2023-03-12T18:39:52.928Z,0.53
2023-03-12T18:42:22.379Z,0.70
2023-03-12T18:44:51.978Z,1.90
2023-03-12T18:47:19.291Z,1.10
2023-03-12T18:49:53.098Z,1.60
2023-03-12T18:52:21.466Z,0.90
2023-03-12T18:54:48.244Z,0.80
2023-03-12T18:57:15.349Z,1.47
2023-03-12T18:59:45.503Z,0.70
2023-03-12T19:02:12.534Z,0.80
2023-03-12T19:04:39.586Z,0.93
2023-03-12T19:07:08.264Z,0.93
2023-03-12T19:09:35.446Z,0.90
2023-03-12T19:12:02.811Z,1.60
2023-03-12T19:14:30.406Z,1.50
2023-03-12T19:16:57.646Z,1.00
2023-03-12T19:19:24.874Z,1.00
2023-03-12T19:21:52.721Z,1.80
2023-03-12T19:24:19.562Z,1.23
2023-03-12T19:26:46.298Z,1.23
2023-03-12T19:29:15.184Z,0.70
2023-03-12T19:31:43.232Z,0.90
2023-03-12T19:34:10.190Z,0.77
2023-03-12T19:36:38.446Z,0.93
2023-03-12T19:39:15.262Z,0.93
2023-03-12T19:41:47.640Z,0.90
2023-03-12T19:44:14.362Z,0.83
2023-03-12T19:46:43.255Z,0.87
2023-03-12T19:49:10.320Z,0.90
2023-03-12T19:51:40.257Z,0.63
2023-03-12T19:54:08.244Z,1.00
2023-03-12T19:56:35.031Z,0.90
2023-03-12T19:59:02.641Z,1.33
2023-03-12T20:01:29.332Z,1.30
2023-03-12T20:03:56.069Z,0.97
2023-03-12T20:06:23.345Z,1.00
2023-03-12T20:08:50.176Z,11.80
2023-03-12T20:11:17.368Z,2.73
2023-03-12T20:13:45.249Z,1.83
2023-03-12T20:16:13.909Z,2.40
2023-03-12T20:18:40.739Z,1.60
2023-03-12T20:21:08.450Z,1.47
2023-03-12T20:23:35.364Z,1.50
2023-03-12T20:26:02.602Z,1.00
2023-03-12T20:28:29.601Z,1.30
2023-03-12T20:30:56.362Z,0.93
2023-03-12T20:33:23.708Z,1.40
2023-03-12T20:35:50.642Z,2.53
2023-03-12T20:38:18.926Z,2.47
2023-03-12T20:40:46.488Z,1.80
2023-03-12T20:43:13.277Z,1.80
2023-03-12T20:45:40.126Z,2.97
2023-03-12T20:48:07.701Z,3.20
2023-03-12T20:50:39.345Z,2.90
2023-03-12T20:53:07.639Z,1.90
2023-03-12T20:55:34.389Z,2.30
2023-03-12T20:58:01.134Z,2.70
2023-03-12T21:00:28.117Z,2.13
2023-03-12T21:02:54.818Z,2.30
2023-03-12T21:05:24.920Z,2.10
2023-03-12T21:07:54.048Z,1.90
2023-03-12T21:10:23.505Z,2.37
2023-03-12T21:12:50.395Z,1.90
2023-03-12T21:15:17.134Z,2.00
2023-03-12T21:17:43.858Z,2.10
2023-03-12T21:20:18.858Z,2.20
2023-03-12T21:22:47.005Z,2.50
2023-03-12T21:25:14.056Z,1.83
2023-03-12T21:27:50.493Z,1.83
2023-03-12T21:30:19.220Z,1.77
2023-03-12T21:32:46.212Z,1.80
2023-03-12T21:35:13.033Z,1.87
2023-03-12T21:37:40.028Z,1.93
2023-03-12T21:40:09.195Z,2.10
2023-03-12T21:42:35.976Z,1.90
2023-03-12T21:45:03.466Z,1.87
2023-03-12T21:47:30.384Z,1.87
2023-03-12T21:49:57.319Z,1.70
2023-03-12T21:52:24.277Z,1.67
2023-03-12T21:54:51.019Z,1.70
2023-03-12T21:57:17.719Z,1.73
2023-03-12T21:59:44.499Z,1.83
2023-03-12T22:02:12.954Z,1.80
2023-03-12T22:04:39.972Z,1.90
2023-03-12T22:07:08.117Z,1.93
2023-03-12T22:09:34.861Z,2.07
2023-03-12T22:12:01.871Z,1.87
2023-03-12T22:14:28.987Z,1.77
2023-03-12T22:16:55.859Z,2.17
2023-03-12T22:19:24.325Z,1.77
2023-03-12T22:21:51.087Z,2.17
2023-03-12T22:24:17.787Z,2.10
2023-03-12T22:26:45.908Z,1.93
2023-03-12T22:29:12.788Z,2.53
2023-03-12T22:31:39.764Z,2.50
2023-03-12T22:34:06.516Z,2.20
2023-03-12T22:36:33.716Z,3.10
2023-03-12T22:39:00.477Z,2.70
2023-03-12T22:41:29.322Z,2.87
2023-03-12T22:44:01.375Z,2.90
2023-03-12T22:46:28.764Z,3.30
2023-03-12T22:48:57.633Z,4.03
2023-03-12T22:51:25.633Z,3.57
2023-03-12T22:53:53.540Z,4.00
2023-03-12T22:56:20.516Z,4.13
2023-03-12T22:58:48.055Z,4.30
2023-03-12T23:01:20.296Z,3.93
2023-03-12T23:03:47.290Z,4.93
2023-03-12T23:06:29.879Z,3.53
2023-03-12T23:08:57.252Z,5.10
2023-03-12T23:11:26.801Z,3.80
2023-03-12T23:13:54.904Z,4.53
2023-03-12T23:16:24.329Z,4.43
2023-03-12T23:18:51.780Z,4.60
2023-03-12T23:21:21.042Z,4.03
2023-03-12T23:23:49.197Z,4.53
2023-03-12T23:26:22.385Z,4.10
2023-03-12T23:28:53.837Z,3.87
2023-03-12T23:31:21.605Z,3.90
2023-03-12T23:33:48.595Z,3.33
2023-03-12T23:36:18.333Z,3.37
2023-03-12T23:38:46.631Z,2.90
2023-03-12T23:41:21.992Z,3.47
2023-03-12T23:43:49.413Z,3.27
2023-03-12T23:46:17.194Z,3.20
2023-03-12T23:48:45.716Z,3.53
2023-03-12T23:51:18.413Z,2.73
2023-03-12T23:53:47.128Z,2.80
2023-03-12T23:56:17.521Z,2.60
2023-03-12T23:58:45.315Z,2.27
